sensor_id;sensor_type;location;lat;lon;timestamp;pressure;altitude;pressure_sealevel;temperature;humidity
59315;BME280;46521;50.160;20.802;2022-11-02T00:07:13;100042.88;;;9.42;79.63
59315;BME280;46521;50.160;20.802;2022-11-02T00:17:14;100031.17;;;9.45;79.64
59315;BME280;46521;50.160;20.802;2022-11-02T00:27:16;100029.38;;;9.45;80.05
59315;BME280;46521;50.160;20.802;2022-11-02T00:37:18;100023.80;;;9.48;79.93
59315;BME280;46521;50.160;20.802;2022-11-02T00:47:19;100027.47;;;9.55;79.97
59315;BME280;46521;50.160;20.802;2022-11-02T00:57:21;100021.28;;;9.65;79.81
59315;BME280;46521;50.160;20.802;2022-11-02T01:07:23;100022.03;;;9.75;80.21
59315;BME280;46521;50.160;20.802;2022-11-02T01:17:24;100014.47;;;9.80;80.18
59315;BME280;46521;50.160;20.802;2022-11-02T01:27:26;100022.64;;;9.95;80.22
59315;BME280;46521;50.160;20.802;2022-11-02T01:37:27;100017.59;;;10.02;80.40
59315;BME280;46521;50.160;20.802;2022-11-02T01:47:33;100020.90;;;10.04;80.05
59315;BME280;46521;50.160;20.802;2022-11-02T01:57:37;100017.44;;;10.03;79.95
59315;BME280;46521;50.160;20.802;2022-11-02T02:07:40;100017.59;;;10.02;80.17
59315;BME280;46521;50.160;20.802;2022-11-02T02:17:54;100016.28;;;10.06;80.55
59315;BME280;46521;50.160;20.802;2022-11-02T02:38:34;100025.91;;;10.15;80.83
59315;BME280;46521;50.160;20.802;2022-11-02T02:48:43;100021.02;;;10.20;80.81
59315;BME280;46521;50.160;20.802;2022-11-02T02:58:59;100038.36;;;10.23;80.33
59315;BME280;46521;50.160;20.802;2022-11-02T03:29:51;100040.17;;;10.22;80.88
59315;BME280;46521;50.160;20.802;2022-11-02T03:40:05;100065.77;;;10.22;80.75
59315;BME280;46521;50.160;20.802;2022-11-02T03:50:11;100064.13;;;10.21;80.46
59315;BME280;46521;50.160;20.802;2022-11-02T04:10:16;100081.73;;;10.12;80.97
59315;BME280;46521;50.160;20.802;2022-11-02T04:20:18;100074.41;;;10.06;80.99
59315;BME280;46521;50.160;20.802;2022-11-02T04:30:21;100081.98;;;10.01;80.99
59315;BME280;46521;50.160;20.802;2022-11-02T04:40:23;100083.88;;;9.90;80.40
59315;BME280;46521;50.160;20.802;2022-11-02T04:50:25;100088.43;;;9.80;80.83
59315;BME280;46521;50.160;20.802;2022-11-02T05:00:27;100096.59;;;9.69;80.84
59315;BME280;46521;50.160;20.802;2022-11-02T05:10:29;100100.14;;;9.60;80.29
59315;BME280;46521;50.160;20.802;2022-11-02T05:20:30;100128.63;;;9.56;80.69
59315;BME280;46521;50.160;20.802;2022-11-02T05:30:32;100131.38;;;9.64;80.99
59315;BME280;46521;50.160;20.802;2022-11-02T05:40:33;100131.90;;;9.68;80.95
59315;BME280;46521;50.160;20.802;2022-11-02T05:50:37;100135.91;;;9.72;80.98
59315;BME280;46521;50.160;20.802;2022-11-02T06:00:39;100157.34;;;9.69;80.91
59315;BME280;46521;50.160;20.802;2022-11-02T06:10:40;100159.98;;;9.69;81.04
59315;BME280;46521;50.160;20.802;2022-11-02T06:20:43;100153.11;;;9.94;81.25
59315;BME280;46521;50.160;20.802;2022-11-02T06:30:45;100169.19;;;10.01;80.94
59315;BME280;46521;50.160;20.802;2022-11-02T06:40:57;100173.63;;;11.82;79.47
59315;BME280;46521;50.160;20.802;2022-11-02T06:50:59;100181.01;;;13.10;78.84
59315;BME280;46521;50.160;20.802;2022-11-02T07:01:05;100191.75;;;12.28;79.26
59315;BME280;46521;50.160;20.802;2022-11-02T07:11:07;100182.09;;;12.76;79.35
59315;BME280;46521;50.160;20.802;2022-11-02T07:21:12;100177.00;;;13.54;78.61
59315;BME280;46521;50.160;20.802;2022-11-02T07:31:14;100180.41;;;13.94;77.94
59315;BME280;46521;50.160;20.802;2022-11-02T07:41:15;100172.89;;;14.21;77.49
59315;BME280;46521;50.160;20.802;2022-11-02T07:51:17;100165.16;;;14.49;76.45
59315;BME280;46521;50.160;20.802;2022-11-02T08:01:18;100163.75;;;14.62;75.66
59315;BME280;46521;50.160;20.802;2022-11-02T08:11:20;100158.53;;;14.83;75.64
59315;BME280;46521;50.160;20.802;2022-11-02T08:21:21;100158.15;;;14.71;74.74
59315;BME280;46521;50.160;20.802;2022-11-02T08:31:23;100159.36;;;14.69;75.08
59315;BME280;46521;50.160;20.802;2022-11-02T08:41:24;100144.28;;;15.06;74.87
59315;BME280;46521;50.160;20.802;2022-11-02T08:51:26;100150.78;;;15.33;73.99
59315;BME280;46521;50.160;20.802;2022-11-02T09:01:27;100144.46;;;15.56;73.92
59315;BME280;46521;50.160;20.802;2022-11-02T09:11:29;100136.33;;;16.00;74.15
59315;BME280;46521;50.160;20.802;2022-11-02T09:21:31;100125.88;;;16.27;72.42
59315;BME280;46521;50.160;20.802;2022-11-02T09:31:33;100134.73;;;16.34;72.24
59315;BME280;46521;50.160;20.802;2022-11-02T09:41:46;100141.11;;;16.33;71.95
59315;BME280;46521;50.160;20.802;2022-11-02T09:51:54;100126.45;;;16.51;72.01
59315;BME280;46521;50.160;20.802;2022-11-02T10:22:34;100116.40;;;16.88;70.45
59315;BME280;46521;50.160;20.802;2022-11-02T10:32:39;100109.28;;;16.67;70.00
59315;BME280;46521;50.160;20.802;2022-11-02T10:42:50;100112.34;;;16.64;70.03
59315;BME280;46521;50.160;20.802;2022-11-02T10:53:20;100106.15;;;16.28;69.14
59315;BME280;46521;50.160;20.802;2022-11-02T11:04:02;100105.48;;;16.48;68.81
59315;BME280;46521;50.160;20.802;2022-11-02T11:14:16;100106.64;;;16.38;69.08
59315;BME280;46521;50.160;20.802;2022-11-02T11:34:54;100089.46;;;16.48;68.00
59315;BME280;46521;50.160;20.802;2022-11-02T11:45:26;100084.09;;;16.83;67.03
59315;BME280;46521;50.160;20.802;2022-11-02T11:55:54;100091.09;;;16.84;66.35
59315;BME280;46521;50.160;20.802;2022-11-02T12:37:14;100077.09;;;16.40;63.79
59315;BME280;46521;50.160;20.802;2022-11-02T12:58:15;100079.22;;;15.95;63.90
59315;BME280;46521;50.160;20.802;2022-11-02T13:18:56;100077.84;;;15.77;64.14
59315;BME280;46521;50.160;20.802;2022-11-02T13:29:45;100080.53;;;15.62;63.90
59315;BME280;46521;50.160;20.802;2022-11-02T13:39:52;100080.80;;;15.46;64.47
59315;BME280;46521;50.160;20.802;2022-11-02T13:50:21;100086.35;;;15.29;64.07
59315;BME280;46521;50.160;20.802;2022-11-02T14:00:50;100083.48;;;15.09;64.36
59315;BME280;46521;50.160;20.802;2022-11-02T14:31:39;100084.95;;;14.52;64.25
59315;BME280;46521;50.160;20.802;2022-11-02T14:52:32;100091.59;;;14.03;64.06
59315;BME280;46521;50.160;20.802;2022-11-02T15:02:37;100098.34;;;13.68;64.34
59315;BME280;46521;50.160;20.802;2022-11-02T15:12:47;100107.33;;;13.44;64.56
59315;BME280;46521;50.160;20.802;2022-11-02T15:33:35;100124.97;;;13.28;64.31
59315;BME280;46521;50.160;20.802;2022-11-02T15:44:03;100134.33;;;13.16;64.65
59315;BME280;46521;50.160;20.802;2022-11-02T16:04:59;100140.30;;;12.70;64.81
59315;BME280;46521;50.160;20.802;2022-11-02T16:25:38;100152.00;;;12.12;65.48
59315;BME280;46521;50.160;20.802;2022-11-02T16:35:41;100161.76;;;11.95;65.34
59315;BME280;46521;50.160;20.802;2022-11-02T16:45:48;100164.50;;;11.77;66.21
59315;BME280;46521;50.160;20.802;2022-11-02T16:55:50;100177.75;;;11.68;65.97
59315;BME280;46521;50.160;20.802;2022-11-02T17:05:59;100186.34;;;11.62;66.08
59315;BME280;46521;50.160;20.802;2022-11-02T17:16:10;100181.02;;;11.46;66.05
59315;BME280;46521;50.160;20.802;2022-11-02T17:36:25;100204.55;;;11.14;66.74
59315;BME280;46521;50.160;20.802;2022-11-02T17:46:31;100207.06;;;10.90;66.57
59315;BME280;46521;50.160;20.802;2022-11-02T17:57:00;100213.75;;;10.76;67.37
59315;BME280;46521;50.160;20.802;2022-11-02T18:07:27;100220.63;;;10.69;67.22
59315;BME280;46521;50.160;20.802;2022-11-02T18:17:29;100220.95;;;10.66;67.36
59315;BME280;46521;50.160;20.802;2022-11-02T18:27:31;100224.44;;;10.66;67.77
59315;BME280;46521;50.160;20.802;2022-11-02T18:37:33;100241.93;;;10.85;68.31
59315;BME280;46521;50.160;20.802;2022-11-02T18:47:35;100239.52;;;11.00;68.20
59315;BME280;46521;50.160;20.802;2022-11-02T18:57:36;100246.38;;;11.11;68.58
59315;BME280;46521;50.160;20.802;2022-11-02T19:07:38;100252.52;;;11.11;68.24
59315;BME280;46521;50.160;20.802;2022-11-02T19:17:58;100259.26;;;11.06;69.34
59315;BME280;46521;50.160;20.802;2022-11-02T19:28:00;100257.73;;;11.03;69.07
59315;BME280;46521;50.160;20.802;2022-11-02T19:38:04;100278.36;;;10.91;69.24
59315;BME280;46521;50.160;20.802;2022-11-02T19:48:05;100296.32;;;10.61;69.14
59315;BME280;46521;50.160;20.802;2022-11-02T19:58:07;100305.38;;;10.59;69.56
59315;BME280;46521;50.160;20.802;2022-11-02T20:08:09;100302.22;;;10.55;69.63
59315;BME280;46521;50.160;20.802;2022-11-02T20:18:10;100316.34;;;10.46;70.08
59315;BME280;46521;50.160;20.802;2022-11-02T20:28:12;100319.66;;;10.48;70.19
59315;BME280;46521;50.160;20.802;2022-11-02T20:38:14;100320.56;;;10.39;70.89
59315;BME280;46521;50.160;20.802;2022-11-02T20:48:16;100320.56;;;10.39;70.84
59315;BME280;46521;50.160;20.802;2022-11-02T20:58:18;100317.81;;;10.31;71.19
59315;BME280;46521;50.160;20.802;2022-11-02T21:08:20;100335.39;;;10.22;71.62
59315;BME280;46521;50.160;20.802;2022-11-02T21:18:24;100335.22;;;10.05;72.27
59315;BME280;46521;50.160;20.802;2022-11-02T21:28:29;100332.08;;;9.92;72.44
59315;BME280;46521;50.160;20.802;2022-11-02T21:38:31;100336.45;;;9.83;72.59
59315;BME280;46521;50.160;20.802;2022-11-02T21:48:34;100332.84;;;9.84;72.81
59315;BME280;46521;50.160;20.802;2022-11-02T21:58:37;100329.91;;;9.87;73.07
59315;BME280;46521;50.160;20.802;2022-11-02T22:08:39;100338.27;;;9.83;72.48
59315;BME280;46521;50.160;20.802;2022-11-02T22:18:43;100337.81;;;9.60;73.10
59315;BME280;46521;50.160;20.802;2022-11-02T22:28:45;100340.78;;;9.47;72.82
59315;BME280;46521;50.160;20.802;2022-11-02T22:38:47;100354.55;;;9.41;72.72
59315;BME280;46521;50.160;20.802;2022-11-02T22:48:53;100365.22;;;9.49;72.97
59315;BME280;46521;50.160;20.802;2022-11-02T22:58:56;100365.47;;;9.55;73.14
59315;BME280;46521;50.160;20.802;2022-11-02T23:08:58;100365.86;;;9.61;73.29
59315;BME280;46521;50.160;20.802;2022-11-02T23:29:19;100368.31;;;9.25;72.66
59315;BME280;46521;50.160;20.802;2022-11-02T23:39:39;100383.78;;;9.00;72.59
